createdAt,value
2023-03-03T00:00:33.349Z,60.89
2023-03-03T00:03:07.146Z,60.58
2023-03-03T00:05:36.295Z,61.55
2023-03-03T00:08:06.206Z,62.73
2023-03-03T00:10:34.175Z,61.55
2023-03-03T00:13:02.288Z,62.13
2023-03-03T00:15:35.462Z,61.19
2023-03-03T00:18:18.169Z,60.60
2023-03-03T00:20:50.854Z,60.66
2023-03-03T00:23:27.533Z,61.90
2023-03-03T00:25:56.016Z,62.24
2023-03-03T00:28:27.181Z,61.91
2023-03-03T00:30:57.740Z,63.56
2023-03-03T00:33:29.407Z,62.28
2023-03-03T00:35:58.594Z,61.58
2023-03-03T00:38:28.270Z,62.41
2023-03-03T00:40:56.498Z,63.96
2023-03-03T00:43:27.986Z,61.66
2023-03-03T00:45:57.963Z,61.36
2023-03-03T00:48:32.150Z,60.83
2023-03-03T00:51:01.448Z,60.93
2023-03-03T00:53:32.081Z,60.97
2023-03-03T00:56:00.096Z,60.67
2023-03-03T00:58:37.609Z,61.21
2023-03-03T01:01:06.444Z,61.27
2023-03-03T01:03:35.780Z,61.96
2023-03-03T01:06:03.842Z,62.05
2023-03-03T01:08:34.958Z,62.62
2023-03-03T01:11:07.129Z,61.59
2023-03-03T01:13:38.117Z,62.43
2023-03-03T01:16:07.336Z,61.09
2023-03-03T01:18:36.549Z,60.44
2023-03-03T01:21:05.581Z,60.31
2023-03-03T01:23:35.305Z,60.03
2023-03-03T01:26:03.983Z,59.95
2023-03-03T01:28:31.987Z,59.75
2023-03-03T01:31:02.181Z,60.27
2023-03-03T01:33:31.622Z,60.49
2023-03-03T01:36:00.058Z,60.61
2023-03-03T01:38:28.381Z,60.12
2023-03-03T01:41:00.580Z,59.60
2023-03-03T01:43:31.101Z,59.99
2023-03-03T01:46:34.467Z,59.90
2023-03-03T01:49:06.821Z,61.04
2023-03-03T01:51:38.653Z,60.87
2023-03-03T01:54:11.884Z,61.28
2023-03-03T01:56:43.562Z,61.01
2023-03-03T01:59:15.026Z,62.28
2023-03-03T02:01:43.729Z,60.79
2023-03-03T02:04:11.992Z,62.07
2023-03-03T02:06:42.609Z,60.91
2023-03-03T02:09:16.301Z,61.54
2023-03-03T02:11:48.874Z,60.69
2023-03-03T02:14:17.064Z,60.69
2023-03-03T02:16:45.958Z,60.69
2023-03-03T02:19:23.001Z,60.84
2023-03-03T02:21:51.428Z,63.15
2023-03-03T02:24:27.483Z,63.56
2023-03-03T02:26:57.506Z,62.26
2023-03-03T02:29:25.801Z,61.84
2023-03-03T02:31:54.590Z,62.88
2023-03-03T02:34:23.314Z,61.92
2023-03-03T02:36:51.700Z,61.22
2023-03-03T02:39:24.146Z,61.49
2023-03-03T02:41:56.960Z,60.35
2023-03-03T02:44:29.141Z,60.58
2023-03-03T02:46:58.769Z,60.40
2023-03-03T02:49:28.522Z,60.36
2023-03-03T02:51:56.883Z,60.38
2023-03-03T02:54:27.330Z,61.69
2023-03-03T02:56:55.458Z,61.23
2023-03-03T02:59:23.786Z,60.49
2023-03-03T03:01:54.084Z,60.48
2023-03-03T03:04:24.603Z,62.31
2023-03-03T03:06:53.664Z,62.80
2023-03-03T03:09:24.405Z,63.11
2023-03-03T03:11:53.324Z,62.61
2023-03-03T03:14:23.427Z,63.50
2023-03-03T03:16:52.447Z,62.88
2023-03-03T03:19:22.959Z,62.91
2023-03-03T03:21:51.038Z,62.10
2023-03-03T03:24:19.513Z,61.40
2023-03-03T03:26:48.411Z,61.57
2023-03-03T03:29:16.415Z,61.23
2023-03-03T03:31:45.366Z,61.89
2023-03-03T03:34:13.913Z,62.63
2023-03-03T03:36:43.247Z,61.85
2023-03-03T03:39:12.352Z,62.42
2023-03-03T03:41:41.260Z,61.97
2023-03-03T03:44:09.358Z,62.56
2023-03-03T03:46:37.422Z,62.50
2023-03-03T03:49:06.830Z,61.67
2023-03-03T03:51:38.284Z,61.77
2023-03-03T03:54:08.632Z,61.98
2023-03-03T03:56:37.057Z,61.80
2023-03-03T03:59:07.446Z,61.76
2023-03-03T04:01:36.461Z,61.26
2023-03-03T04:04:05.132Z,62.83
2023-03-03T04:06:33.273Z,62.26
2023-03-03T04:09:01.735Z,62.01
2023-03-03T04:11:31.500Z,61.66
2023-03-03T04:13:59.773Z,61.79
2023-03-03T04:16:28.089Z,62.40
2023-03-03T04:18:57.070Z,62.91
2023-03-03T04:21:25.455Z,63.68
2023-03-03T04:23:54.485Z,64.12
2023-03-03T04:26:22.770Z,63.60
2023-03-03T04:28:52.189Z,64.09
2023-03-03T04:31:20.932Z,65.30
2023-03-03T04:33:49.339Z,63.25
2023-03-03T04:36:18.227Z,62.16
2023-03-03T04:38:46.322Z,61.76
2023-03-03T04:41:14.985Z,61.73
2023-03-03T04:43:43.155Z,61.51
2023-03-03T04:46:14.258Z,61.09
2023-03-03T04:48:42.989Z,62.33
2023-03-03T04:51:11.273Z,61.79
2023-03-03T04:53:39.543Z,61.64
2023-03-03T04:56:08.750Z,62.30
2023-03-03T04:58:37.185Z,62.03
2023-03-03T05:01:05.528Z,62.14
2023-03-03T05:03:35.370Z,62.00
2023-03-03T05:06:03.543Z,61.96
2023-03-03T05:08:31.573Z,61.52
2023-03-03T05:10:59.888Z,61.17
2023-03-03T05:13:28.209Z,61.23
2023-03-03T05:15:57.252Z,60.86
2023-03-03T05:18:27.576Z,61.60
2023-03-03T05:20:56.852Z,61.06
2023-03-03T05:23:25.152Z,61.55
2023-03-03T05:25:53.429Z,61.58
2023-03-03T05:28:21.434Z,61.37
2023-03-03T05:30:49.600Z,60.98
2023-03-03T05:33:18.901Z,60.57
2023-03-03T05:35:47.152Z,60.22
2023-03-03T05:38:16.423Z,60.86
2023-03-03T05:40:45.413Z,60.40
2023-03-03T05:43:13.476Z,61.11
2023-03-03T05:45:41.505Z,60.87
2023-03-03T05:48:11.155Z,61.06
2023-03-03T05:50:40.086Z,61.06
2023-03-03T05:53:08.317Z,61.45
2023-03-03T05:55:38.040Z,60.69
2023-03-03T05:58:06.027Z,60.85
2023-03-03T06:00:33.971Z,61.21
2023-03-03T06:03:02.265Z,60.76
2023-03-03T06:05:30.345Z,60.07
2023-03-03T06:07:58.648Z,60.71
2023-03-03T06:10:27.246Z,60.10
2023-03-03T06:12:58.519Z,60.14
2023-03-03T06:15:26.886Z,60.56
2023-03-03T06:17:55.086Z,59.80
2023-03-03T06:20:23.123Z,59.81
2023-03-03T06:22:51.408Z,59.48
2023-03-03T06:25:19.702Z,59.31
2023-03-03T06:27:47.779Z,59.77
2023-03-03T06:30:19.006Z,59.48
2023-03-03T06:32:47.355Z,59.66
2023-03-03T06:35:15.729Z,59.71
2023-03-03T06:37:43.835Z,60.35
2023-03-03T06:40:13.585Z,59.70
2023-03-03T06:42:42.154Z,59.41
2023-03-03T06:45:10.843Z,60.04
2023-03-03T06:47:40.464Z,60.09
2023-03-03T06:50:10.985Z,60.51
2023-03-03T06:52:39.370Z,59.84
2023-03-03T06:55:14.532Z,60.16
2023-03-03T06:57:43.248Z,59.63
2023-03-03T07:00:20.132Z,59.57
2023-03-03T07:02:57.375Z,59.80
2023-03-03T07:05:29.053Z,59.62
2023-03-03T07:07:57.611Z,59.46
2023-03-03T07:10:30.517Z,59.38
2023-03-03T07:13:12.073Z,59.35
2023-03-03T07:15:39.972Z,59.64
2023-03-03T07:18:26.581Z,59.58
2023-03-03T07:20:54.542Z,59.40
2023-03-03T07:23:25.616Z,59.20
2023-03-03T07:25:53.881Z,59.24
2023-03-03T07:28:25.539Z,59.20
2023-03-03T07:30:54.664Z,59.03
2023-03-03T07:33:28.563Z,59.02
2023-03-03T07:35:58.749Z,58.80
2023-03-03T07:38:32.897Z,58.84
2023-03-03T07:41:03.997Z,59.66
2023-03-03T07:43:36.607Z,60.70
2023-03-03T07:46:22.867Z,59.68
2023-03-03T07:48:54.153Z,60.49
2023-03-03T07:51:25.402Z,60.57
2023-03-03T07:53:55.134Z,60.18
2023-03-03T07:56:30.464Z,60.14
2023-03-03T07:58:59.595Z,59.94
2023-03-03T08:01:40.849Z,59.24
2023-03-03T08:04:23.509Z,59.49
2023-03-03T08:06:53.805Z,59.32
2023-03-03T08:09:38.462Z,59.20
2023-03-03T08:12:42.045Z,59.40
2023-03-03T08:15:20.779Z,59.31
2023-03-03T08:17:50.180Z,58.87
2023-03-03T08:20:44.809Z,59.04
2023-03-03T08:23:13.538Z,59.45
2023-03-03T08:25:42.807Z,58.76
2023-03-03T08:28:11.791Z,58.84
2023-03-03T08:30:39.995Z,58.81
2023-03-03T08:33:08.561Z,58.64
2023-03-03T08:35:38.008Z,58.78
2023-03-03T08:38:06.309Z,58.65
2023-03-03T08:40:35.069Z,58.83
2023-03-03T08:43:03.432Z,58.57
2023-03-03T08:45:32.313Z,58.64
2023-03-03T08:48:01.266Z,58.57
2023-03-03T08:50:30.311Z,58.69
2023-03-03T08:52:59.737Z,58.50
2023-03-03T08:55:28.140Z,58.37
2023-03-03T08:57:56.112Z,58.34
2023-03-03T09:00:25.066Z,58.51
2023-03-03T09:02:54.282Z,58.36
2023-03-03T09:05:23.593Z,58.37
2023-03-03T09:07:52.388Z,58.41
2023-03-03T09:10:30.839Z,58.30
2023-03-03T09:13:01.976Z,58.33
2023-03-03T09:15:31.989Z,58.28
2023-03-03T09:18:01.306Z,58.09
2023-03-03T09:20:34.333Z,58.04
2023-03-03T09:23:33.731Z,58.08
2023-03-03T09:26:23.282Z,58.74
2023-03-03T09:28:51.510Z,58.82
2023-03-03T09:31:27.086Z,58.45
2023-03-03T09:33:57.838Z,58.38
2023-03-03T09:36:29.035Z,58.12
2023-03-03T09:38:59.080Z,58.19
2023-03-03T09:42:03.762Z,58.06
2023-03-03T09:44:45.921Z,58.23
2023-03-03T09:47:35.947Z,58.22
2023-03-03T09:50:16.664Z,58.57
2023-03-03T09:52:53.776Z,58.09
2023-03-03T09:55:37.245Z,58.22
2023-03-03T09:58:26.097Z,58.04
2023-03-03T10:01:05.904Z,57.83
2023-03-03T10:04:02.260Z,58.22
2023-03-03T10:06:34.911Z,58.18
2023-03-03T10:09:23.759Z,57.96
2023-03-03T10:12:00.844Z,57.90
2023-03-03T10:14:54.122Z,57.98
2023-03-03T10:17:34.355Z,57.91
2023-03-03T10:20:26.285Z,57.45
2023-03-03T10:22:57.020Z,57.81
2023-03-03T10:25:42.284Z,57.69
2023-03-03T10:28:36.577Z,56.53
2023-03-03T10:31:18.587Z,55.94
2023-03-03T10:33:54.521Z,56.12
2023-03-03T10:36:36.135Z,56.37
2023-03-03T10:39:19.638Z,56.14
2023-03-03T10:42:10.159Z,56.29
2023-03-03T10:44:54.329Z,56.19
2023-03-03T10:47:35.719Z,56.63
2023-03-03T10:50:15.996Z,56.34
2023-03-03T10:52:50.481Z,56.23
2023-03-03T10:55:39.648Z,56.51
2023-03-03T10:58:33.182Z,56.95
2023-03-03T11:01:09.613Z,56.78
2023-03-03T11:04:09.657Z,56.92
2023-03-03T11:06:46.472Z,56.73
2023-03-03T11:09:31.890Z,56.90
2023-03-03T11:12:09.028Z,56.60
2023-03-03T11:14:47.812Z,56.86
2023-03-03T11:17:21.622Z,56.68
2023-03-03T11:20:02.629Z,57.05
2023-03-03T11:22:42.038Z,56.88
2023-03-03T11:25:24.113Z,56.96
2023-03-03T11:28:09.433Z,56.81
2023-03-03T11:30:59.944Z,56.50
2023-03-03T11:33:35.471Z,57.34
2023-03-03T11:36:12.771Z,57.63
2023-03-03T11:38:49.446Z,57.42
2023-03-03T11:41:35.865Z,58.09
2023-03-03T11:44:12.532Z,57.89
2023-03-03T11:46:47.337Z,57.79
2023-03-03T11:49:22.697Z,57.56
2023-03-03T11:52:03.185Z,57.56
2023-03-03T11:54:37.844Z,57.18
2023-03-03T11:57:18.917Z,57.20
2023-03-03T11:59:57.131Z,57.18
2023-03-03T12:02:43.951Z,57.37
2023-03-03T12:05:26.775Z,57.29
2023-03-03T12:08:08.048Z,57.06
2023-03-03T12:10:44.009Z,57.00
2023-03-03T12:13:23.189Z,56.91
2023-03-03T12:15:56.570Z,56.72
2023-03-03T12:18:43.745Z,56.46
2023-03-03T12:21:24.089Z,56.48
2023-03-03T12:24:09.391Z,56.53
2023-03-03T12:26:48.568Z,56.68
2023-03-03T12:29:28.841Z,56.76
2023-03-03T12:32:05.688Z,56.56
2023-03-03T12:34:39.941Z,56.36
2023-03-03T12:37:21.938Z,56.50
2023-03-03T12:40:03.628Z,56.72
2023-03-03T12:42:48.897Z,56.44
2023-03-03T12:45:34.515Z,56.57
2023-03-03T12:48:09.929Z,56.69
2023-03-03T12:50:55.833Z,56.68
2023-03-03T12:53:35.358Z,56.45
2023-03-03T12:56:08.803Z,56.47
2023-03-03T12:58:47.484Z,56.69
2023-03-03T13:01:33.677Z,56.40
2023-03-03T13:04:08.794Z,56.39
2023-03-03T13:06:43.970Z,56.35
2023-03-03T13:09:23.459Z,56.23
2023-03-03T13:12:06.189Z,55.97
2023-03-03T13:14:44.454Z,55.86
2023-03-03T13:17:20.907Z,55.53
2023-03-03T13:19:55.502Z,55.26
2023-03-03T13:22:35.662Z,55.22
2023-03-03T13:25:09.851Z,55.43
2023-03-03T13:27:41.959Z,55.88
2023-03-03T13:30:21.184Z,56.15
2023-03-03T13:32:55.970Z,55.73
2023-03-03T13:35:34.901Z,55.75
2023-03-03T13:38:05.889Z,56.02
2023-03-03T13:40:42.472Z,55.83
2023-03-03T13:43:19.292Z,55.70
2023-03-03T13:45:59.921Z,55.89
2023-03-03T13:48:43.180Z,55.43
2023-03-03T13:51:19.566Z,55.35
2023-03-03T13:53:54.722Z,55.31
2023-03-03T13:56:39.375Z,55.39
2023-03-03T13:59:17.789Z,55.15
2023-03-03T14:01:56.882Z,55.21
2023-03-03T14:04:35.664Z,54.89
2023-03-03T14:07:14.463Z,54.91
2023-03-03T14:09:57.489Z,55.25
2023-03-03T14:12:35.493Z,54.85
2023-03-03T14:15:12.686Z,54.61
2023-03-03T14:17:54.831Z,54.41
2023-03-03T14:20:29.042Z,54.37
2023-03-03T14:23:00.569Z,54.14
2023-03-03T14:25:53.549Z,54.53
2023-03-03T14:28:24.180Z,54.09
2023-03-03T14:30:56.404Z,54.33
2023-03-03T14:33:30.938Z,54.38
2023-03-03T14:36:16.055Z,54.37
2023-03-03T14:38:51.696Z,53.88
2023-03-03T14:41:23.853Z,53.88
2023-03-03T14:44:00.673Z,53.90
2023-03-03T14:46:36.490Z,53.81
2023-03-03T14:49:07.889Z,54.08
2023-03-03T14:51:45.117Z,54.21
2023-03-03T14:54:23.606Z,54.11
2023-03-03T14:57:13.281Z,54.26
2023-03-03T14:59:41.855Z,54.41
2023-03-03T15:02:32.896Z,54.75
2023-03-03T15:05:29.552Z,54.51
2023-03-03T15:07:59.800Z,54.41
2023-03-03T15:10:34.732Z,54.70
2023-03-03T15:13:34.376Z,54.56
2023-03-03T15:16:06.551Z,54.61
2023-03-03T15:18:51.961Z,55.16
2023-03-03T15:21:26.860Z,54.68
2023-03-03T15:24:00.869Z,54.39
2023-03-03T15:26:39.759Z,54.23
2023-03-03T15:29:17.298Z,54.46
2023-03-03T15:31:53.244Z,54.32
2023-03-03T15:34:40.592Z,54.43
2023-03-03T15:37:22.345Z,54.76
2023-03-03T15:39:58.234Z,54.72
2023-03-03T15:42:35.840Z,54.96
2023-03-03T15:45:15.383Z,55.14
2023-03-03T15:47:57.245Z,54.89
2023-03-03T15:50:36.308Z,55.13
2023-03-03T15:53:27.820Z,55.33
2023-03-03T15:56:13.064Z,55.45
2023-03-03T15:59:08.790Z,55.27
2023-03-03T16:01:45.240Z,55.37
2023-03-03T16:04:16.859Z,55.06
2023-03-03T16:06:58.808Z,54.85
2023-03-03T16:09:42.791Z,54.84
2023-03-03T16:12:22.545Z,54.95
2023-03-03T16:15:07.396Z,55.51
2023-03-03T16:17:48.381Z,55.88
2023-03-03T16:20:24.222Z,55.33
2023-03-03T16:23:26.290Z,55.34
2023-03-03T16:26:06.045Z,55.62
2023-03-03T16:28:48.027Z,55.40
2023-03-03T16:31:22.929Z,55.48
2023-03-03T16:34:01.095Z,55.10
2023-03-03T16:36:36.149Z,54.94
2023-03-03T16:39:09.951Z,54.86
2023-03-03T16:41:48.207Z,54.98
2023-03-03T16:44:35.610Z,55.37
2023-03-03T16:47:17.265Z,55.50
2023-03-03T16:49:52.856Z,55.45
2023-03-03T16:52:26.577Z,55.32
2023-03-03T16:54:58.227Z,55.76
2023-03-03T16:57:35.426Z,55.40
2023-03-03T17:00:10.485Z,55.70
2023-03-03T17:03:13.418Z,55.75
2023-03-03T17:05:49.776Z,55.68
2023-03-03T17:08:34.892Z,55.57
2023-03-03T17:11:12.638Z,55.98
2023-03-03T17:13:57.603Z,55.83
2023-03-03T17:16:49.809Z,55.93
2023-03-03T17:19:32.224Z,55.76
2023-03-03T17:22:13.539Z,55.57
2023-03-03T17:24:54.073Z,55.84
2023-03-03T17:27:29.116Z,55.84
2023-03-03T17:30:07.570Z,55.73
2023-03-03T17:32:59.926Z,55.72
2023-03-03T17:35:53.692Z,55.79
2023-03-03T17:38:36.068Z,55.81
2023-03-03T17:41:09.986Z,56.03
2023-03-03T17:43:48.488Z,56.50
2023-03-03T17:46:24.540Z,55.70
2023-03-03T17:49:31.721Z,55.32
2023-03-03T17:52:21.255Z,55.44
2023-03-03T17:55:06.619Z,54.92
2023-03-03T17:57:52.082Z,54.76
2023-03-03T18:00:37.150Z,54.48
2023-03-03T18:03:35.936Z,54.40
2023-03-03T18:06:27.679Z,54.53
2023-03-03T18:09:16.144Z,54.77
2023-03-03T18:12:00.024Z,55.14
2023-03-03T18:14:45.900Z,55.05
2023-03-03T18:17:34.708Z,54.62
2023-03-03T18:20:24.765Z,54.90
2023-03-03T18:22:54.199Z,54.69
2023-03-03T18:25:24.068Z,54.48
2023-03-03T18:28:20.624Z,54.68
2023-03-03T18:30:57.480Z,54.55
2023-03-03T18:33:37.918Z,54.53
2023-03-03T18:36:15.929Z,54.57
2023-03-03T18:38:47.902Z,54.52
2023-03-03T18:41:24.675Z,54.65
2023-03-03T18:43:58.282Z,54.58
2023-03-03T18:47:00.445Z,54.62
2023-03-03T18:49:52.580Z,55.12
2023-03-03T18:52:26.398Z,55.13
2023-03-03T18:55:22.776Z,54.74
2023-03-03T18:58:31.162Z,54.82
2023-03-03T19:01:03.770Z,55.14
2023-03-03T19:03:37.478Z,55.26
2023-03-03T19:06:10.297Z,55.20
2023-03-03T19:08:56.242Z,55.05
2023-03-03T19:11:38.640Z,55.51
2023-03-03T19:14:19.328Z,55.66
2023-03-03T19:16:49.677Z,55.52
2023-03-03T19:19:19.561Z,55.36
2023-03-03T19:21:51.341Z,55.29
2023-03-03T19:24:30.989Z,55.38
2023-03-03T19:27:14.773Z,55.11
2023-03-03T19:30:01.941Z,55.20
2023-03-03T19:33:02.367Z,55.28
2023-03-03T19:35:38.743Z,55.60
2023-03-03T19:38:20.329Z,55.34
2023-03-03T19:41:00.284Z,55.39
2023-03-03T19:43:42.009Z,55.46
2023-03-03T19:46:34.726Z,55.63
2023-03-03T19:49:14.004Z,56.02
2023-03-03T19:51:48.921Z,55.66
2023-03-03T19:54:32.813Z,55.70
2023-03-03T19:57:06.869Z,56.51
2023-03-03T19:59:42.346Z,56.42
2023-03-03T20:02:31.529Z,56.16
2023-03-03T20:05:14.643Z,56.92
2023-03-03T20:07:50.785Z,56.42
2023-03-03T20:10:45.113Z,56.39
2023-03-03T20:13:41.120Z,57.57
2023-03-03T20:16:19.648Z,57.74
2023-03-03T20:19:10.529Z,57.63
2023-03-03T20:21:45.620Z,57.74
2023-03-03T20:24:39.658Z,57.07
2023-03-03T20:27:16.146Z,57.54
2023-03-03T20:30:00.276Z,57.42
2023-03-03T20:32:42.714Z,59.24
2023-03-03T20:35:24.692Z,57.66
2023-03-03T20:38:04.645Z,57.76
2023-03-03T20:40:40.076Z,57.45
2023-03-03T20:43:21.464Z,57.59
2023-03-03T20:46:01.342Z,58.01
2023-03-03T20:48:44.159Z,57.77
2023-03-03T20:51:19.126Z,57.56
2023-03-03T20:53:57.756Z,57.43
2023-03-03T20:56:32.912Z,58.02
2023-03-03T20:59:14.458Z,58.06
2023-03-03T21:01:53.195Z,58.08
2023-03-03T21:04:24.569Z,58.32
2023-03-03T21:06:53.290Z,58.46
2023-03-03T21:09:27.974Z,58.41
2023-03-03T21:11:56.469Z,58.02
2023-03-03T21:14:27.310Z,58.00
2023-03-03T21:16:58.685Z,57.61
2023-03-03T21:19:30.278Z,58.46
2023-03-03T21:22:02.139Z,58.14
2023-03-03T21:24:51.371Z,58.03
2023-03-03T21:27:28.454Z,58.96
2023-03-03T21:30:05.974Z,58.34
2023-03-03T21:32:41.702Z,59.03
2023-03-03T21:35:12.177Z,58.86
2023-03-03T21:37:48.742Z,58.30
2023-03-03T21:40:21.039Z,59.45
2023-03-03T21:42:49.657Z,58.81
2023-03-03T21:45:20.644Z,58.87
2023-03-03T21:47:50.787Z,59.15
2023-03-03T21:50:21.573Z,59.87
2023-03-03T21:52:49.924Z,59.53
2023-03-03T21:55:18.509Z,59.38
2023-03-03T21:57:46.702Z,59.05
2023-03-03T22:00:15.349Z,60.08
2023-03-03T22:02:43.741Z,60.12
2023-03-03T22:05:13.163Z,59.88
2023-03-03T22:07:41.307Z,59.40
2023-03-03T22:10:11.028Z,59.63
2023-03-03T22:12:39.222Z,60.09
2023-03-03T22:15:08.110Z,59.62
2023-03-03T22:17:36.495Z,59.75
2023-03-03T22:20:05.211Z,59.24
2023-03-03T22:22:34.676Z,60.07
2023-03-03T22:25:03.281Z,59.71
2023-03-03T22:27:31.308Z,59.62
2023-03-03T22:29:59.365Z,59.35
2023-03-03T22:32:28.522Z,59.43
2023-03-03T22:34:56.708Z,58.91
2023-03-03T22:37:24.618Z,59.82
2023-03-03T22:39:54.189Z,59.19
2023-03-03T22:42:23.401Z,59.06
2023-03-03T22:44:51.472Z,59.36
2023-03-03T22:47:19.960Z,59.45
2023-03-03T22:49:48.151Z,59.40
2023-03-03T22:52:16.134Z,59.11
2023-03-03T22:54:44.414Z,59.27
2023-03-03T22:57:13.769Z,59.06
2023-03-03T22:59:41.706Z,59.12
2023-03-03T23:02:09.989Z,59.28
2023-03-03T23:04:39.187Z,59.02
2023-03-03T23:07:07.286Z,59.65
2023-03-03T23:09:35.613Z,59.16
2023-03-03T23:12:03.691Z,59.35
2023-03-03T23:14:33.174Z,59.71
2023-03-03T23:17:01.810Z,59.83
2023-03-03T23:19:29.841Z,59.74
2023-03-03T23:21:58.348Z,59.45
2023-03-03T23:24:26.648Z,59.39
2023-03-03T23:26:57.421Z,59.38
2023-03-03T23:29:25.757Z,60.11
2023-03-03T23:31:55.539Z,60.24
2023-03-03T23:34:23.670Z,60.42
2023-03-03T23:36:51.650Z,59.66
2023-03-03T23:39:20.144Z,59.50
2023-03-03T23:41:48.102Z,59.51
2023-03-03T23:44:16.107Z,61.22
2023-03-03T23:46:44.580Z,60.30
2023-03-03T23:49:13.958Z,60.84
2023-03-03T23:51:42.785Z,61.09
2023-03-03T23:54:11.128Z,60.50
2023-03-03T23:56:39.116Z,60.32
2023-03-03T23:59:07.188Z,61.01
